sensor_id;sensor_type;location;lat;lon;timestamp;P1;durP1;ratioP1;P2;durP2;ratioP2
72205;SDS011;60111;48.286;7.812;2024-02-23T00:00:52;2.17;;;0.70;;
72205;SDS011;60111;48.286;7.812;2024-02-23T00:03:24;1.60;;;0.60;;
72205;SDS011;60111;48.286;7.812;2024-02-23T00:05:58;0.30;;;0.30;;
72205;SDS011;60111;48.286;7.812;2024-02-23T00:08:30;0.77;;;0.40;;
72205;SDS011;60111;48.286;7.812;2024-02-23T00:11:03;1.40;;;0.50;;
72205;SDS011;60111;48.286;7.812;2024-02-23T00:13:36;1.37;;;0.33;;
72205;SDS011;60111;48.286;7.812;2024-02-23T00:16:09;0.50;;;0.30;;
72205;SDS011;60111;48.286;7.812;2024-02-23T00:18:42;0.62;;;0.40;;
72205;SDS011;60111;48.286;7.812;2024-02-23T00:21:14;0.88;;;0.50;;
72205;SDS011;60111;48.286;7.812;2024-02-23T00:23:47;0.93;;;0.50;;
72205;SDS011;60111;48.286;7.812;2024-02-23T00:26:20;3.60;;;0.50;;
72205;SDS011;60111;48.286;7.812;2024-02-23T00:28:52;0.50;;;0.47;;
72205;SDS011;60111;48.286;7.812;2024-02-23T00:31:25;2.58;;;0.60;;
72205;SDS011;60111;48.286;7.812;2024-02-23T00:33:57;2.83;;;0.50;;
72205;SDS011;60111;48.286;7.812;2024-02-23T00:36:30;1.60;;;0.50;;
72205;SDS011;60111;48.286;7.812;2024-02-23T00:39:02;2.85;;;0.53;;
72205;SDS011;60111;48.286;7.812;2024-02-23T00:41:35;0.98;;;0.70;;
72205;SDS011;60111;48.286;7.812;2024-02-23T00:44:08;4.20;;;0.85;;
72205;SDS011;60111;48.286;7.812;2024-02-23T00:46:41;0.57;;;0.50;;
72205;SDS011;60111;48.286;7.812;2024-02-23T00:49:13;2.22;;;0.68;;
72205;SDS011;60111;48.286;7.812;2024-02-23T00:51:46;3.75;;;0.80;;
72205;SDS011;60111;48.286;7.812;2024-02-23T00:54:19;1.10;;;0.50;;
72205;SDS011;60111;48.286;7.812;2024-02-23T00:56:51;3.77;;;0.60;;
72205;SDS011;60111;48.286;7.812;2024-02-23T00:59:24;1.25;;;0.57;;
72205;SDS011;60111;48.286;7.812;2024-02-23T01:01:57;1.32;;;0.57;;
72205;SDS011;60111;48.286;7.812;2024-02-23T01:04:30;2.83;;;1.05;;
72205;SDS011;60111;48.286;7.812;2024-02-23T01:07:02;3.60;;;0.60;;
72205;SDS011;60111;48.286;7.812;2024-02-23T01:09:35;0.80;;;0.50;;
72205;SDS011;60111;48.286;7.812;2024-02-23T01:12:07;5.28;;;0.60;;
72205;SDS011;60111;48.286;7.812;2024-02-23T01:14:40;1.07;;;0.50;;
72205;SDS011;60111;48.286;7.812;2024-02-23T01:17:13;0.98;;;0.60;;
72205;SDS011;60111;48.286;7.812;2024-02-23T01:19:46;2.15;;;0.60;;
72205;SDS011;60111;48.286;7.812;2024-02-23T01:22:19;0.70;;;0.50;;
72205;SDS011;60111;48.286;7.812;2024-02-23T01:24:51;1.90;;;0.85;;
72205;SDS011;60111;48.286;7.812;2024-02-23T01:27:24;0.80;;;0.40;;
72205;SDS011;60111;48.286;7.812;2024-02-23T01:29:57;1.90;;;0.60;;
72205;SDS011;60111;48.286;7.812;2024-02-23T01:32:33;2.37;;;0.70;;
72205;SDS011;60111;48.286;7.812;2024-02-23T01:35:07;1.37;;;0.68;;
72205;SDS011;60111;48.286;7.812;2024-02-23T01:37:40;1.22;;;0.75;;
72205;SDS011;60111;48.286;7.812;2024-02-23T01:40:13;1.05;;;0.70;;
72205;SDS011;60111;48.286;7.812;2024-02-23T01:42:45;3.47;;;0.80;;
72205;SDS011;60111;48.286;7.812;2024-02-23T01:45:18;1.42;;;0.70;;
72205;SDS011;60111;48.286;7.812;2024-02-23T01:47:50;1.15;;;0.60;;
72205;SDS011;60111;48.286;7.812;2024-02-23T01:50:23;2.60;;;0.80;;
72205;SDS011;60111;48.286;7.812;2024-02-23T01:52:58;0.97;;;0.53;;
72205;SDS011;60111;48.286;7.812;2024-02-23T01:55:32;0.82;;;0.50;;
72205;SDS011;60111;48.286;7.812;2024-02-23T01:58:14;2.37;;;0.82;;
72205;SDS011;60111;48.286;7.812;2024-02-23T02:00:47;1.17;;;0.70;;
72205;SDS011;60111;48.286;7.812;2024-02-23T02:03:20;3.45;;;0.70;;
72205;SDS011;60111;48.286;7.812;2024-02-23T02:05:53;1.17;;;0.50;;
72205;SDS011;60111;48.286;7.812;2024-02-23T02:08:27;1.77;;;0.53;;
72205;SDS011;60111;48.286;7.812;2024-02-23T02:11:01;1.87;;;0.50;;
72205;SDS011;60111;48.286;7.812;2024-02-23T02:13:33;0.55;;;0.55;;
72205;SDS011;60111;48.286;7.812;2024-02-23T02:16:06;1.77;;;0.85;;
72205;SDS011;60111;48.286;7.812;2024-02-23T02:18:40;1.73;;;0.60;;
72205;SDS011;60111;48.286;7.812;2024-02-23T02:21:13;1.47;;;0.60;;
72205;SDS011;60111;48.286;7.812;2024-02-23T02:23:45;1.57;;;0.70;;
72205;SDS011;60111;48.286;7.812;2024-02-23T02:26:18;1.27;;;0.65;;
72205;SDS011;60111;48.286;7.812;2024-02-23T02:28:50;1.82;;;0.80;;
72205;SDS011;60111;48.286;7.812;2024-02-23T02:31:23;4.20;;;0.72;;
72205;SDS011;60111;48.286;7.812;2024-02-23T02:33:56;2.60;;;0.77;;
72205;SDS011;60111;48.286;7.812;2024-02-23T02:36:28;1.57;;;0.80;;
72205;SDS011;60111;48.286;7.812;2024-02-23T02:39:01;2.27;;;0.70;;
72205;SDS011;60111;48.286;7.812;2024-02-23T02:41:33;1.40;;;0.60;;
72205;SDS011;60111;48.286;7.812;2024-02-23T02:44:06;1.45;;;0.80;;
72205;SDS011;60111;48.286;7.812;2024-02-23T02:46:43;3.67;;;0.70;;
72205;SDS011;60111;48.286;7.812;2024-02-23T02:49:17;2.47;;;0.60;;
72205;SDS011;60111;48.286;7.812;2024-02-23T02:51:49;2.45;;;0.82;;
72205;SDS011;60111;48.286;7.812;2024-02-23T02:54:22;2.42;;;0.90;;
72205;SDS011;60111;48.286;7.812;2024-02-23T02:56:55;3.60;;;0.80;;
72205;SDS011;60111;48.286;7.812;2024-02-23T02:59:27;2.67;;;0.88;;
72205;SDS011;60111;48.286;7.812;2024-02-23T03:02:00;1.62;;;0.80;;
72205;SDS011;60111;48.286;7.812;2024-02-23T03:04:32;2.37;;;1.00;;
72205;SDS011;60111;48.286;7.812;2024-02-23T03:07:05;6.28;;;0.93;;
72205;SDS011;60111;48.286;7.812;2024-02-23T03:09:37;2.75;;;0.78;;
72205;SDS011;60111;48.286;7.812;2024-02-23T03:12:10;3.65;;;0.98;;
72205;SDS011;60111;48.286;7.812;2024-02-23T03:14:43;2.30;;;0.93;;
72205;SDS011;60111;48.286;7.812;2024-02-23T03:17:16;1.87;;;0.83;;
72205;SDS011;60111;48.286;7.812;2024-02-23T03:19:48;5.05;;;1.10;;
72205;SDS011;60111;48.286;7.812;2024-02-23T03:22:25;3.72;;;0.90;;
72205;SDS011;60111;48.286;7.812;2024-02-23T03:24:57;1.90;;;0.93;;
72205;SDS011;60111;48.286;7.812;2024-02-23T03:27:30;5.35;;;0.80;;
72205;SDS011;60111;48.286;7.812;2024-02-23T03:30:03;4.30;;;1.50;;
72205;SDS011;60111;48.286;7.812;2024-02-23T03:32:38;2.07;;;0.77;;
72205;SDS011;60111;48.286;7.812;2024-02-23T03:35:10;2.72;;;0.90;;
72205;SDS011;60111;48.286;7.812;2024-02-23T03:37:43;3.75;;;0.80;;
72205;SDS011;60111;48.286;7.812;2024-02-23T03:40:15;2.00;;;0.90;;
72205;SDS011;60111;48.286;7.812;2024-02-23T03:42:50;3.70;;;1.20;;
72205;SDS011;60111;48.286;7.812;2024-02-23T03:45:22;1.67;;;0.80;;
72205;SDS011;60111;48.286;7.812;2024-02-23T03:47:55;3.27;;;0.80;;
72205;SDS011;60111;48.286;7.812;2024-02-23T03:50:28;3.02;;;1.07;;
72205;SDS011;60111;48.286;7.812;2024-02-23T03:53:00;2.35;;;1.00;;
72205;SDS011;60111;48.286;7.812;2024-02-23T03:55:33;4.22;;;0.90;;
72205;SDS011;60111;48.286;7.812;2024-02-23T03:58:06;7.75;;;1.20;;
72205;SDS011;60111;48.286;7.812;2024-02-23T04:00:39;1.33;;;0.97;;
72205;SDS011;60111;48.286;7.812;2024-02-23T04:03:11;2.87;;;0.90;;
72205;SDS011;60111;48.286;7.812;2024-02-23T04:05:44;5.20;;;1.20;;
72205;SDS011;60111;48.286;7.812;2024-02-23T04:08:16;2.55;;;0.80;;
72205;SDS011;60111;48.286;7.812;2024-02-23T04:10:49;2.13;;;0.93;;
72205;SDS011;60111;48.286;7.812;2024-02-23T04:13:21;3.83;;;1.00;;
72205;SDS011;60111;48.286;7.812;2024-02-23T04:15:55;3.98;;;0.98;;
72205;SDS011;60111;48.286;7.812;2024-02-23T04:18:28;2.55;;;1.10;;
72205;SDS011;60111;48.286;7.812;2024-02-23T04:21:00;1.75;;;0.70;;
72205;SDS011;60111;48.286;7.812;2024-02-23T04:23:33;2.52;;;0.90;;
72205;SDS011;60111;48.286;7.812;2024-02-23T04:26:06;2.33;;;0.93;;
72205;SDS011;60111;48.286;7.812;2024-02-23T04:28:40;2.62;;;0.72;;
72205;SDS011;60111;48.286;7.812;2024-02-23T04:31:13;3.47;;;1.00;;
72205;SDS011;60111;48.286;7.812;2024-02-23T04:33:45;3.05;;;1.05;;
72205;SDS011;60111;48.286;7.812;2024-02-23T04:36:21;4.58;;;0.85;;
72205;SDS011;60111;48.286;7.812;2024-02-23T04:38:54;3.42;;;0.80;;
72205;SDS011;60111;48.286;7.812;2024-02-23T04:41:26;1.98;;;0.80;;
72205;SDS011;60111;48.286;7.812;2024-02-23T04:44:00;2.47;;;1.00;;
72205;SDS011;60111;48.286;7.812;2024-02-23T04:46:34;6.70;;;1.50;;
72205;SDS011;60111;48.286;7.812;2024-02-23T04:49:07;7.72;;;1.98;;
72205;SDS011;60111;48.286;7.812;2024-02-23T04:51:39;2.53;;;1.07;;
72205;SDS011;60111;48.286;7.812;2024-02-23T04:54:12;2.42;;;1.00;;
72205;SDS011;60111;48.286;7.812;2024-02-23T04:56:44;4.87;;;1.07;;
72205;SDS011;60111;48.286;7.812;2024-02-23T04:59:18;4.22;;;1.20;;
72205;SDS011;60111;48.286;7.812;2024-02-23T05:01:51;2.85;;;1.00;;
72205;SDS011;60111;48.286;7.812;2024-02-23T05:04:23;3.50;;;1.20;;
72205;SDS011;60111;48.286;7.812;2024-02-23T05:06:57;3.20;;;1.10;;
72205;SDS011;60111;48.286;7.812;2024-02-23T05:09:30;3.35;;;1.25;;
72205;SDS011;60111;48.286;7.812;2024-02-23T05:12:03;4.53;;;1.57;;
72205;SDS011;60111;48.286;7.812;2024-02-23T05:14:36;4.33;;;1.10;;
72205;SDS011;60111;48.286;7.812;2024-02-23T05:17:08;3.22;;;0.90;;
72205;SDS011;60111;48.286;7.812;2024-02-23T05:19:41;1.30;;;1.00;;
72205;SDS011;60111;48.286;7.812;2024-02-23T05:22:14;3.87;;;1.57;;
72205;SDS011;60111;48.286;7.812;2024-02-23T05:24:47;3.35;;;1.07;;
72205;SDS011;60111;48.286;7.812;2024-02-23T05:27:19;4.50;;;1.60;;
72205;SDS011;60111;48.286;7.812;2024-02-23T05:29:52;4.78;;;1.10;;
72205;SDS011;60111;48.286;7.812;2024-02-23T05:32:25;5.03;;;1.32;;
72205;SDS011;60111;48.286;7.812;2024-02-23T05:34:58;1.77;;;0.98;;
72205;SDS011;60111;48.286;7.812;2024-02-23T05:37:30;5.08;;;1.32;;
72205;SDS011;60111;48.286;7.812;2024-02-23T05:40:03;4.10;;;1.30;;
72205;SDS011;60111;48.286;7.812;2024-02-23T05:42:43;3.75;;;1.20;;
72205;SDS011;60111;48.286;7.812;2024-02-23T05:45:15;2.83;;;1.00;;
72205;SDS011;60111;48.286;7.812;2024-02-23T05:47:48;4.70;;;1.30;;
72205;SDS011;60111;48.286;7.812;2024-02-23T05:50:21;5.08;;;1.42;;
72205;SDS011;60111;48.286;7.812;2024-02-23T05:52:53;4.60;;;1.37;;
72205;SDS011;60111;48.286;7.812;2024-02-23T05:55:26;3.67;;;1.37;;
72205;SDS011;60111;48.286;7.812;2024-02-23T05:57:58;5.77;;;1.37;;
72205;SDS011;60111;48.286;7.812;2024-02-23T06:00:31;8.60;;;1.50;;
72205;SDS011;60111;48.286;7.812;2024-02-23T06:03:03;5.87;;;1.37;;
72205;SDS011;60111;48.286;7.812;2024-02-23T06:05:36;4.28;;;1.47;;
72205;SDS011;60111;48.286;7.812;2024-02-23T06:08:09;5.20;;;1.32;;
72205;SDS011;60111;48.286;7.812;2024-02-23T06:10:41;2.70;;;1.30;;
72205;SDS011;60111;48.286;7.812;2024-02-23T06:13:14;4.25;;;1.20;;
72205;SDS011;60111;48.286;7.812;2024-02-23T06:15:46;9.05;;;1.37;;
72205;SDS011;60111;48.286;7.812;2024-02-23T06:18:19;9.08;;;1.40;;
72205;SDS011;60111;48.286;7.812;2024-02-23T06:20:52;4.72;;;1.30;;
72205;SDS011;60111;48.286;7.812;2024-02-23T06:23:25;4.67;;;1.40;;
72205;SDS011;60111;48.286;7.812;2024-02-23T06:26:00;6.75;;;1.57;;
72205;SDS011;60111;48.286;7.812;2024-02-23T06:28:33;9.25;;;1.35;;
72205;SDS011;60111;48.286;7.812;2024-02-23T06:31:05;3.13;;;1.27;;
72205;SDS011;60111;48.286;7.812;2024-02-23T06:33:38;4.45;;;1.25;;
72205;SDS011;60111;48.286;7.812;2024-02-23T06:36:11;6.17;;;1.57;;
72205;SDS011;60111;48.286;7.812;2024-02-23T06:38:44;7.08;;;1.45;;
72205;SDS011;60111;48.286;7.812;2024-02-23T06:41:17;7.72;;;1.17;;
72205;SDS011;60111;48.286;7.812;2024-02-23T06:43:50;5.90;;;1.57;;
72205;SDS011;60111;48.286;7.812;2024-02-23T06:46:23;8.77;;;1.43;;
72205;SDS011;60111;48.286;7.812;2024-02-23T06:48:56;8.03;;;1.25;;
72205;SDS011;60111;48.286;7.812;2024-02-23T06:51:29;7.22;;;1.40;;
72205;SDS011;60111;48.286;7.812;2024-02-23T06:54:03;3.87;;;1.30;;
72205;SDS011;60111;48.286;7.812;2024-02-23T06:56:35;5.92;;;1.70;;
72205;SDS011;60111;48.286;7.812;2024-02-23T06:59:08;4.30;;;1.22;;
72205;SDS011;60111;48.286;7.812;2024-02-23T07:01:47;5.05;;;1.47;;
72205;SDS011;60111;48.286;7.812;2024-02-23T07:04:23;7.83;;;2.08;;
72205;SDS011;60111;48.286;7.812;2024-02-23T07:06:56;5.97;;;2.10;;
72205;SDS011;60111;48.286;7.812;2024-02-23T07:09:29;4.17;;;1.65;;
72205;SDS011;60111;48.286;7.812;2024-02-23T07:12:01;6.97;;;1.70;;
72205;SDS011;60111;48.286;7.812;2024-02-23T07:14:35;6.12;;;1.60;;
72205;SDS011;60111;48.286;7.812;2024-02-23T07:17:07;10.10;;;2.08;;
72205;SDS011;60111;48.286;7.812;2024-02-23T07:19:40;6.30;;;1.50;;
72205;SDS011;60111;48.286;7.812;2024-02-23T07:22:13;6.45;;;1.90;;
72205;SDS011;60111;48.286;7.812;2024-02-23T07:24:47;5.47;;;2.00;;
72205;SDS011;60111;48.286;7.812;2024-02-23T07:27:20;7.75;;;1.90;;
72205;SDS011;60111;48.286;7.812;2024-02-23T07:29:52;7.08;;;1.80;;
72205;SDS011;60111;48.286;7.812;2024-02-23T07:32:25;3.17;;;1.60;;
72205;SDS011;60111;48.286;7.812;2024-02-23T07:34:59;9.65;;;1.70;;
72205;SDS011;60111;48.286;7.812;2024-02-23T07:37:32;9.70;;;1.90;;
72205;SDS011;60111;48.286;7.812;2024-02-23T07:40:05;8.25;;;1.55;;
72205;SDS011;60111;48.286;7.812;2024-02-23T07:42:38;5.65;;;1.32;;
72205;SDS011;60111;48.286;7.812;2024-02-23T07:45:11;5.62;;;1.62;;
72205;SDS011;60111;48.286;7.812;2024-02-23T07:47:43;6.62;;;1.22;;
72205;SDS011;60111;48.286;7.812;2024-02-23T07:50:16;9.13;;;1.50;;
72205;SDS011;60111;48.286;7.812;2024-02-23T07:52:49;7.03;;;1.30;;
72205;SDS011;60111;48.286;7.812;2024-02-23T07:55:22;5.08;;;1.50;;
72205;SDS011;60111;48.286;7.812;2024-02-23T07:57:55;3.52;;;1.30;;
72205;SDS011;60111;48.286;7.812;2024-02-23T08:00:29;10.13;;;1.65;;
72205;SDS011;60111;48.286;7.812;2024-02-23T08:03:01;7.60;;;1.50;;
72205;SDS011;60111;48.286;7.812;2024-02-23T08:05:34;8.53;;;1.80;;
72205;SDS011;60111;48.286;7.812;2024-02-23T08:08:07;4.97;;;1.50;;
72205;SDS011;60111;48.286;7.812;2024-02-23T08:10:39;9.90;;;1.80;;
72205;SDS011;60111;48.286;7.812;2024-02-23T08:13:13;6.20;;;1.62;;
72205;SDS011;60111;48.286;7.812;2024-02-23T08:15:46;2.73;;;1.30;;
72205;SDS011;60111;48.286;7.812;2024-02-23T08:18:18;9.18;;;1.77;;
72205;SDS011;60111;48.286;7.812;2024-02-23T08:20:53;6.50;;;1.60;;
72205;SDS011;60111;48.286;7.812;2024-02-23T08:23:26;6.37;;;2.12;;
72205;SDS011;60111;48.286;7.812;2024-02-23T08:25:59;5.63;;;1.80;;
72205;SDS011;60111;48.286;7.812;2024-02-23T08:28:31;5.72;;;1.62;;
72205;SDS011;60111;48.286;7.812;2024-02-23T08:31:04;7.47;;;1.90;;
72205;SDS011;60111;48.286;7.812;2024-02-23T08:33:37;12.18;;;1.90;;
72205;SDS011;60111;48.286;7.812;2024-02-23T08:36:10;9.25;;;1.77;;
72205;SDS011;60111;48.286;7.812;2024-02-23T08:38:42;4.12;;;1.35;;
72205;SDS011;60111;48.286;7.812;2024-02-23T08:41:15;5.00;;;1.30;;
72205;SDS011;60111;48.286;7.812;2024-02-23T08:43:47;8.65;;;1.77;;
72205;SDS011;60111;48.286;7.812;2024-02-23T08:46:21;5.67;;;1.70;;
72205;SDS011;60111;48.286;7.812;2024-02-23T08:48:53;8.58;;;1.62;;
72205;SDS011;60111;48.286;7.812;2024-02-23T08:51:27;6.16;;;1.50;;
72205;SDS011;60111;48.286;7.812;2024-02-23T08:53:59;6.80;;;1.20;;
72205;SDS011;60111;48.286;7.812;2024-02-23T08:56:36;7.03;;;1.47;;
72205;SDS011;60111;48.286;7.812;2024-02-23T08:59:11;9.85;;;2.08;;
72205;SDS011;60111;48.286;7.812;2024-02-23T09:01:43;6.83;;;1.95;;
72205;SDS011;60111;48.286;7.812;2024-02-23T09:04:17;8.93;;;1.97;;
72205;SDS011;60111;48.286;7.812;2024-02-23T09:06:50;11.70;;;1.87;;
72205;SDS011;60111;48.286;7.812;2024-02-23T09:09:24;6.53;;;1.52;;
72205;SDS011;60111;48.286;7.812;2024-02-23T09:11:57;19.73;;;6.45;;
72205;SDS011;60111;48.286;7.812;2024-02-23T09:14:29;7.95;;;2.37;;
72205;SDS011;60111;48.286;7.812;2024-02-23T09:17:02;7.20;;;1.72;;
72205;SDS011;60111;48.286;7.812;2024-02-23T09:19:35;9.10;;;1.87;;
72205;SDS011;60111;48.286;7.812;2024-02-23T09:22:08;7.80;;;1.85;;
72205;SDS011;60111;48.286;7.812;2024-02-23T09:24:41;8.50;;;1.67;;
72205;SDS011;60111;48.286;7.812;2024-02-23T09:27:13;5.62;;;1.90;;
72205;SDS011;60111;48.286;7.812;2024-02-23T09:29:46;5.33;;;1.75;;
72205;SDS011;60111;48.286;7.812;2024-02-23T09:32:19;11.48;;;2.00;;
72205;SDS011;60111;48.286;7.812;2024-02-23T09:34:52;7.87;;;1.77;;
72205;SDS011;60111;48.286;7.812;2024-02-23T09:37:25;10.38;;;2.40;;
72205;SDS011;60111;48.286;7.812;2024-02-23T09:39:57;6.60;;;1.80;;
72205;SDS011;60111;48.286;7.812;2024-02-23T09:42:30;8.50;;;2.30;;
72205;SDS011;60111;48.286;7.812;2024-02-23T09:45:03;7.03;;;2.03;;
72205;SDS011;60111;48.286;7.812;2024-02-23T09:47:38;8.73;;;2.02;;
72205;SDS011;60111;48.286;7.812;2024-02-23T09:50:12;9.83;;;1.95;;
72205;SDS011;60111;48.286;7.812;2024-02-23T09:52:46;10.75;;;1.75;;
72205;SDS011;60111;48.286;7.812;2024-02-23T09:55:21;7.35;;;2.05;;
72205;SDS011;60111;48.286;7.812;2024-02-23T09:57:55;12.20;;;2.53;;
72205;SDS011;60111;48.286;7.812;2024-02-23T10:00:30;10.13;;;2.45;;
72205;SDS011;60111;48.286;7.812;2024-02-23T10:03:05;13.90;;;2.30;;
72205;SDS011;60111;48.286;7.812;2024-02-23T10:05:38;13.00;;;2.10;;
72205;SDS011;60111;48.286;7.812;2024-02-23T10:08:11;7.65;;;2.58;;
72205;SDS011;60111;48.286;7.812;2024-02-23T10:10:45;6.65;;;2.00;;
72205;SDS011;60111;48.286;7.812;2024-02-23T10:13:22;9.18;;;2.15;;
72205;SDS011;60111;48.286;7.812;2024-02-23T10:15:55;9.50;;;2.97;;
72205;SDS011;60111;48.286;7.812;2024-02-23T10:18:29;11.75;;;2.25;;
72205;SDS011;60111;48.286;7.812;2024-02-23T10:21:01;8.13;;;2.00;;
72205;SDS011;60111;48.286;7.812;2024-02-23T10:23:34;7.10;;;2.00;;
72205;SDS011;60111;48.286;7.812;2024-02-23T10:26:07;7.83;;;3.05;;
72205;SDS011;60111;48.286;7.812;2024-02-23T10:28:40;11.65;;;2.50;;
72205;SDS011;60111;48.286;7.812;2024-02-23T10:31:12;8.65;;;2.27;;
72205;SDS011;60111;48.286;7.812;2024-02-23T10:33:45;7.97;;;1.72;;
72205;SDS011;60111;48.286;7.812;2024-02-23T10:36:21;5.87;;;1.50;;
72205;SDS011;60111;48.286;7.812;2024-02-23T10:38:54;10.03;;;2.50;;
72205;SDS011;60111;48.286;7.812;2024-02-23T10:41:30;8.53;;;2.12;;
72205;SDS011;60111;48.286;7.812;2024-02-23T10:44:05;6.20;;;2.15;;
72205;SDS011;60111;48.286;7.812;2024-02-23T10:46:40;9.35;;;1.82;;
72205;SDS011;60111;48.286;7.812;2024-02-23T10:49:13;5.28;;;1.45;;
72205;SDS011;60111;48.286;7.812;2024-02-23T10:51:47;5.55;;;1.50;;
72205;SDS011;60111;48.286;7.812;2024-02-23T10:54:20;7.27;;;1.60;;
72205;SDS011;60111;48.286;7.812;2024-02-23T10:56:53;8.37;;;1.50;;
72205;SDS011;60111;48.286;7.812;2024-02-23T10:59:27;4.87;;;1.37;;
72205;SDS011;60111;48.286;7.812;2024-02-23T11:02:00;9.23;;;1.40;;
72205;SDS011;60111;48.286;7.812;2024-02-23T11:04:34;6.35;;;1.67;;
72205;SDS011;60111;48.286;7.812;2024-02-23T11:07:18;9.68;;;1.82;;
72205;SDS011;60111;48.286;7.812;2024-02-23T11:09:53;5.90;;;1.60;;
72205;SDS011;60111;48.286;7.812;2024-02-23T11:12:30;13.08;;;1.45;;
72205;SDS011;60111;48.286;7.812;2024-02-23T11:15:03;6.90;;;1.95;;
72205;SDS011;60111;48.286;7.812;2024-02-23T11:17:36;9.03;;;2.80;;
72205;SDS011;60111;48.286;7.812;2024-02-23T11:20:09;7.65;;;2.30;;
72205;SDS011;60111;48.286;7.812;2024-02-23T11:22:44;10.95;;;2.33;;
72205;SDS011;60111;48.286;7.812;2024-02-23T11:25:20;5.03;;;1.90;;
72205;SDS011;60111;48.286;7.812;2024-02-23T11:27:56;8.10;;;1.90;;
72205;SDS011;60111;48.286;7.812;2024-02-23T11:30:29;9.10;;;1.55;;
72205;SDS011;60111;48.286;7.812;2024-02-23T11:33:03;6.22;;;1.67;;
72205;SDS011;60111;48.286;7.812;2024-02-23T11:35:45;9.08;;;1.40;;
72205;SDS011;60111;48.286;7.812;2024-02-23T11:38:14;5.30;;;1.72;;
72205;SDS011;60111;48.286;7.812;2024-02-23T11:43:22;7.92;;;1.70;;
72205;SDS011;60111;48.286;7.812;2024-02-23T11:45:55;6.87;;;1.98;;
72205;SDS011;60111;48.286;7.812;2024-02-23T11:48:28;4.42;;;1.62;;
72205;SDS011;60111;48.286;7.812;2024-02-23T11:51:01;5.85;;;1.62;;
72205;SDS011;60111;48.286;7.812;2024-02-23T11:53:35;7.73;;;1.90;;
72205;SDS011;60111;48.286;7.812;2024-02-23T11:56:11;9.00;;;2.20;;
72205;SDS011;60111;48.286;7.812;2024-02-23T11:58:44;3.55;;;1.20;;
72205;SDS011;60111;48.286;7.812;2024-02-23T12:01:18;4.67;;;1.57;;
72205;SDS011;60111;48.286;7.812;2024-02-23T12:03:51;6.47;;;1.60;;
72205;SDS011;60111;48.286;7.812;2024-02-23T12:06:23;4.62;;;1.30;;
72205;SDS011;60111;48.286;7.812;2024-02-23T12:08:58;5.65;;;1.52;;
72205;SDS011;60111;48.286;7.812;2024-02-23T12:11:32;2.97;;;1.30;;
72205;SDS011;60111;48.286;7.812;2024-02-23T12:14:05;7.03;;;1.55;;
72205;SDS011;60111;48.286;7.812;2024-02-23T12:16:39;6.10;;;1.80;;
72205;SDS011;60111;48.286;7.812;2024-02-23T12:19:12;7.25;;;1.70;;
72205;SDS011;60111;48.286;7.812;2024-02-23T12:21:46;9.55;;;1.47;;
72205;SDS011;60111;48.286;7.812;2024-02-23T12:24:19;5.05;;;1.65;;
72205;SDS011;60111;48.286;7.812;2024-02-23T12:26:53;4.20;;;1.40;;
72205;SDS011;60111;48.286;7.812;2024-02-23T12:29:27;4.50;;;1.20;;
72205;SDS011;60111;48.286;7.812;2024-02-23T12:32:03;5.55;;;1.57;;
72205;SDS011;60111;48.286;7.812;2024-02-23T12:34:37;7.85;;;1.77;;
72205;SDS011;60111;48.286;7.812;2024-02-23T12:37:09;6.93;;;1.57;;
72205;SDS011;60111;48.286;7.812;2024-02-23T12:39:42;6.80;;;1.50;;
72205;SDS011;60111;48.286;7.812;2024-02-23T12:42:15;4.45;;;1.20;;
72205;SDS011;60111;48.286;7.812;2024-02-23T12:44:50;2.80;;;1.02;;
72205;SDS011;60111;48.286;7.812;2024-02-23T12:47:22;4.70;;;1.40;;
72205;SDS011;60111;48.286;7.812;2024-02-23T12:49:55;1.47;;;0.70;;
72205;SDS011;60111;48.286;7.812;2024-02-23T12:52:28;0.80;;;0.60;;
72205;SDS011;60111;48.286;7.812;2024-02-23T12:55:01;5.37;;;1.02;;
72205;SDS011;60111;48.286;7.812;2024-02-23T12:57:33;2.77;;;0.90;;
72205;SDS011;60111;48.286;7.812;2024-02-23T13:00:06;1.75;;;0.68;;
72205;SDS011;60111;48.286;7.812;2024-02-23T13:02:39;2.37;;;0.60;;
72205;SDS011;60111;48.286;7.812;2024-02-23T13:05:12;4.95;;;1.10;;
72205;SDS011;60111;48.286;7.812;2024-02-23T13:07:45;3.53;;;0.80;;
72205;SDS011;60111;48.286;7.812;2024-02-23T13:12:51;2.55;;;0.80;;
72205;SDS011;60111;48.286;7.812;2024-02-23T13:15:23;1.62;;;0.82;;
72205;SDS011;60111;48.286;7.812;2024-02-23T13:17:56;2.47;;;0.90;;
72205;SDS011;60111;48.286;7.812;2024-02-23T13:20:29;2.08;;;1.00;;
72205;SDS011;60111;48.286;7.812;2024-02-23T13:23:02;4.58;;;1.82;;
72205;SDS011;60111;48.286;7.812;2024-02-23T13:25:35;5.75;;;1.72;;
72205;SDS011;60111;48.286;7.812;2024-02-23T13:28:08;3.08;;;1.25;;
72205;SDS011;60111;48.286;7.812;2024-02-23T13:30:41;4.40;;;1.20;;
72205;SDS011;60111;48.286;7.812;2024-02-23T13:33:14;2.83;;;1.30;;
72205;SDS011;60111;48.286;7.812;2024-02-23T13:35:47;3.67;;;1.30;;
72205;SDS011;60111;48.286;7.812;2024-02-23T13:38:19;3.80;;;0.90;;
72205;SDS011;60111;48.286;7.812;2024-02-23T13:40:52;3.33;;;1.10;;
72205;SDS011;60111;48.286;7.812;2024-02-23T13:43:25;4.95;;;0.68;;
72205;SDS011;60111;48.286;7.812;2024-02-23T13:45:58;3.13;;;0.87;;
72205;SDS011;60111;48.286;7.812;2024-02-23T13:48:31;2.02;;;0.70;;
72205;SDS011;60111;48.286;7.812;2024-02-23T13:51:04;2.40;;;1.00;;
72205;SDS011;60111;48.286;7.812;2024-02-23T13:53:36;3.67;;;1.00;;
72205;SDS011;60111;48.286;7.812;2024-02-23T13:56:10;5.90;;;1.30;;
72205;SDS011;60111;48.286;7.812;2024-02-23T13:58:43;3.67;;;1.10;;
72205;SDS011;60111;48.286;7.812;2024-02-23T14:01:17;1.87;;;0.73;;
72205;SDS011;60111;48.286;7.812;2024-02-23T14:03:49;3.12;;;1.02;;
72205;SDS011;60111;48.286;7.812;2024-02-23T14:06:22;3.40;;;1.62;;
72205;SDS011;60111;48.286;7.812;2024-02-23T14:08:55;2.58;;;1.07;;
72205;SDS011;60111;48.286;7.812;2024-02-23T14:11:28;4.90;;;1.10;;
72205;SDS011;60111;48.286;7.812;2024-02-23T14:14:01;4.58;;;1.35;;
72205;SDS011;60111;48.286;7.812;2024-02-23T14:16:34;3.60;;;1.00;;
72205;SDS011;60111;48.286;7.812;2024-02-23T14:19:06;2.20;;;0.78;;
72205;SDS011;60111;48.286;7.812;2024-02-23T14:21:39;2.55;;;1.00;;
72205;SDS011;60111;48.286;7.812;2024-02-23T14:24:12;1.98;;;0.72;;
72205;SDS011;60111;48.286;7.812;2024-02-23T14:26:45;1.47;;;0.72;;
72205;SDS011;60111;48.286;7.812;2024-02-23T14:29:17;3.65;;;0.75;;
72205;SDS011;60111;48.286;7.812;2024-02-23T14:31:50;2.98;;;1.00;;
72205;SDS011;60111;48.286;7.812;2024-02-23T14:34:23;4.33;;;0.80;;
72205;SDS011;60111;48.286;7.812;2024-02-23T14:36:55;2.55;;;1.00;;
72205;SDS011;60111;48.286;7.812;2024-02-23T14:39:28;5.12;;;1.00;;
72205;SDS011;60111;48.286;7.812;2024-02-23T14:42:01;2.17;;;0.80;;
72205;SDS011;60111;48.286;7.812;2024-02-23T14:44:34;2.07;;;1.07;;
72205;SDS011;60111;48.286;7.812;2024-02-23T14:47:07;2.27;;;1.07;;
72205;SDS011;60111;48.286;7.812;2024-02-23T14:49:40;5.60;;;1.00;;
72205;SDS011;60111;48.286;7.812;2024-02-23T14:52:13;2.90;;;0.90;;
72205;SDS011;60111;48.286;7.812;2024-02-23T14:54:47;1.82;;;0.98;;
72205;SDS011;60111;48.286;7.812;2024-02-23T14:57:19;5.15;;;1.30;;
72205;SDS011;60111;48.286;7.812;2024-02-23T14:59:52;3.98;;;1.40;;
72205;SDS011;60111;48.286;7.812;2024-02-23T15:02:25;6.00;;;1.30;;
72205;SDS011;60111;48.286;7.812;2024-02-23T15:04:58;4.17;;;0.90;;
72205;SDS011;60111;48.286;7.812;2024-02-23T15:07:30;4.22;;;1.12;;
72205;SDS011;60111;48.286;7.812;2024-02-23T15:10:04;2.15;;;1.10;;
72205;SDS011;60111;48.286;7.812;2024-02-23T15:12:39;3.85;;;1.22;;
72205;SDS011;60111;48.286;7.812;2024-02-23T15:15:12;5.53;;;1.12;;
72205;SDS011;60111;48.286;7.812;2024-02-23T15:17:45;7.05;;;2.00;;
72205;SDS011;60111;48.286;7.812;2024-02-23T15:20:19;5.53;;;1.50;;
72205;SDS011;60111;48.286;7.812;2024-02-23T15:22:52;6.15;;;2.15;;
72205;SDS011;60111;48.286;7.812;2024-02-23T15:25:25;4.40;;;1.77;;
72205;SDS011;60111;48.286;7.812;2024-02-23T15:27:58;4.17;;;1.60;;